Time,TemperatureF,DewpointF,PressureIn,WindDirection,WindDirectionDegrees,WindSpeedMPH,WindSpeedGustMPH,Humidity,HourlyPrecipIn,Conditions,Clouds,dailyrainin,SoftwareType,DateUTC
2013-07-04 07:13:00,62.6,59.4,30.15,North,0,0.0,0.0,89,0.00,,,0.00,WUHU21623XXSP,2013-07-04 11:13:00,
2013-07-04 07:14:00,62.6,59.4,30.15,SSW,202,0.0,0.0,89,0.00,,,0.00,WUHU21623XXSP,2013-07-04 11:14:00,
2013-07-04 07:19:00,62.8,59.6,30.15,SSW,202,0.0,0.0,89,0.00,,,0.00,WUHU21623XXSP,2013-07-04 11:19:00,
2013-07-04 07:24:00,62.6,59.4,30.15,SSW,202,0.0,0.0,89,0.00,,,0.00,WUHU21623XXSP,2013-07-04 11:24:00,
2013-07-04 07:29:00,62.6,59.4,30.15,SSW,202,0.0,0.0,89,0.00,,,0.00,WUHU21623XXSP,2013-07-04 11:29:00,
2013-07-04 07:34:00,62.6,59.4,30.15,SSW,202,0.0,0.0,89,0.00,,,0.00,WUHU21623XXSP,2013-07-04 11:34:00,
2013-07-04 07:39:00,62.6,59.4,30.15,SSW,202,0.0,0.0,89,0.00,,,0.00,WUHU21623XXSP,2013-07-04 11:39:00,
2013-07-04 07:44:00,62.6,59.4,30.15,SSW,202,0.0,0.0,89,0.00,,,0.00,WUHU21623XXSP,2013-07-04 11:44:00,
2013-07-04 07:49:00,62.6,59.4,30.15,SSW,202,0.0,0.0,89,0.00,,,0.00,WUHU21623XXSP,2013-07-04 11:49:00,
2013-07-04 07:51:00,62.6,59.4,30.15,North,0,0.0,0.0,89,0.00,,,0.00,WUHU21623XXSP,2013-07-04 11:51:00,
2013-07-04 07:54:00,62.6,59.4,30.15,SSW,202,0.0,0.0,89,0.00,,,0.00,WUHU21623XXSP,2013-07-04 11:54:00,
2013-07-04 07:59:00,62.6,59.4,30.15,North,0,0.0,0.0,89,0.00,,,0.00,WUHU21623XXSP,2013-07-04 11:59:00,
2013-07-04 11:19:00,68.8,62.5,30.17,South,180,1.3,1.3,80,0.00,,,0.00,WUHU21623XXSP,2013-07-04 15:19:00,
2013-07-04 11:24:00,68.5,62.2,30.18,South,180,1.3,1.3,80,0.00,,,0.00,WUHU21623XXSP,2013-07-04 15:24:00,
2013-07-04 11:29:00,68.7,62.4,30.17,South,180,1.3,1.3,80,0.00,,,0.00,WUHU21623XXSP,2013-07-04 15:29:00,
2013-07-04 11:34:00,68.4,61.4,30.17,South,180,1.3,1.3,78,0.00,,,0.00,WUHU21623XXSP,2013-07-04 15:34:00,
2013-07-04 11:39:00,68.1,61.1,30.17,South,180,1.3,1.3,78,0.00,,,0.00,WUHU21623XXSP,2013-07-04 15:39:00,
2013-07-04 11:44:00,67.9,60.8,30.17,South,180,1.3,1.3,78,0.00,,,0.00,WUHU21623XXSP,2013-07-04 15:44:00,
2013-07-04 11:45:00,67.8,60.8,30.17,South,180,0.0,1.3,78,0.00,,,0.00,WUHU21623XXSP,2013-07-04 15:45:00,
2013-07-04 11:47:00,67.7,60.7,30.17,South,180,0.0,1.3,78,0.00,,,0.00,WUHU21623XXSP,2013-07-04 15:47:00,
2013-07-04 11:58:00,67.8,60.4,30.17,South,180,0.0,0.0,77,0.00,,,0.00,WUHU21623XXSP,2013-07-04 15:58:00,
2013-07-04 12:03:00,67.7,60.4,30.17,South,180,0.0,0.0,77,0.00,,,0.00,WUHU21623XXSP,2013-07-04 16:03:00,
2013-07-04 12:08:00,67.5,60.1,30.17,South,180,0.0,0.0,77,0.00,,,0.00,WUHU21623XXSP,2013-07-04 16:08:00,
2013-07-04 12:13:00,67.2,59.9,30.17,South,180,0.0,0.0,77,0.00,,,0.00,WUHU21623XXSP,2013-07-04 16:13:00,
2013-07-04 12:18:00,67.0,59.7,30.17,South,180,0.0,0.0,77,0.00,,,0.00,WUHU21623XXSP,2013-07-04 16:18:00,
2013-07-04 12:19:00,66.9,59.6,30.17,North,0,0.0,0.0,77,0.00,,,0.00,WUHU21623XXSP,2013-07-04 16:19:00,
2013-07-04 12:23:00,66.9,59.6,30.17,South,180,0.0,0.0,77,0.00,,,0.00,WUHU21623XXSP,2013-07-04 16:23:00,
2013-07-04 12:28:00,66.9,59.6,30.17,North,0,0.0,0.0,77,0.00,,,0.00,WUHU21623XXSP,2013-07-04 16:28:00,
2013-07-04 13:40:00,67.0,57.1,30.16,North,0,0.0,0.0,70,0.00,,,0.00,WUHU21623XXSP,2013-07-04 17:40:00,
2013-07-04 13:45:00,67.0,57.0,30.16,SE,135,0.0,0.0,70,0.00,,,0.00,WUHU21623XXSP,2013-07-04 17:45:00,
2013-07-04 13:50:00,66.9,57.0,30.16,SE,135,0.0,0.0,70,0.00,,,0.00,WUHU21623XXSP,2013-07-04 17:50:00,
2013-07-04 13:55:00,66.9,57.0,30.17,SE,135,0.0,0.0,70,0.00,,,0.00,WUHU21623XXSP,2013-07-04 17:55:00,
2013-07-04 14:00:00,66.9,57.0,30.17,SE,135,0.0,0.0,70,0.00,,,0.00,WUHU21623XXSP,2013-07-04 18:00:00,
2013-07-04 14:05:00,66.9,57.0,30.17,SE,135,0.0,0.0,70,0.00,,,0.00,WUHU21623XXSP,2013-07-04 18:05:00,
2013-07-04 14:08:00,66.9,57.0,30.17,North,0,0.0,0.0,70,0.00,,,0.00,WUHU21623XXSP,2013-07-04 18:08:00,
2013-07-04 14:10:00,66.9,57.0,30.17,SE,135,0.0,0.0,70,0.00,,,0.00,WUHU21623XXSP,2013-07-04 18:10:00,
2013-07-04 14:15:00,66.9,57.0,30.17,North,0,0.0,0.0,70,0.00,,,0.00,WUHU21623XXSP,2013-07-04 18:15:00,
2013-07-04 14:37:00,67.9,57.1,30.15,North,0,0.0,0.0,68,0.00,,,0.00,WUHU21623XXSP,2013-07-04 18:37:00,
2013-07-04 14:42:00,68.0,57.2,30.15,South,180,0.7,0.7,68,0.00,,,0.00,WUHU21623XXSP,2013-07-04 18:42:00,
2013-07-04 14:47:00,68.1,57.3,30.15,South,180,0.7,0.7,68,0.00,,,0.00,WUHU21623XXSP,2013-07-04 18:47:00,
2013-07-04 14:52:00,68.2,57.0,30.15,South,180,0.7,0.7,67,0.00,,,0.00,WUHU21623XXSP,2013-07-04 18:52:00,
2013-07-04 14:57:00,68.2,56.5,30.15,South,180,1.3,1.3,66,0.00,,,0.00,WUHU21623XXSP,2013-07-04 18:57:00,
2013-07-04 15:02:00,68.3,56.7,30.15,South,180,0.0,1.3,66,0.00,,,0.00,WUHU21623XXSP,2013-07-04 19:02:00,
2013-07-04 15:07:00,68.5,57.3,30.14,South,180,0.0,1.3,67,0.00,,,0.00,WUHU21623XXSP,2013-07-04 19:07:00,
2013-07-04 15:12:00,68.6,57.4,30.14,South,180,0.0,0.0,67,0.00,,,0.00,WUHU21623XXSP,2013-07-04 19:12:00,
2013-07-04 15:17:00,68.6,57.8,30.14,South,180,0.0,0.0,68,0.00,,,0.00,WUHU21623XXSP,2013-07-04 19:17:00,
2013-07-04 15:22:00,68.8,58.4,30.14,South,180,0.0,0.0,69,0.00,,,0.00,WUHU21623XXSP,2013-07-04 19:22:00,
2013-07-04 15:27:00,69.0,58.6,30.14,South,180,0.0,0.0,69,0.00,,,0.00,WUHU21623XXSP,2013-07-04 19:27:00,
2013-07-04 15:32:00,69.0,58.6,30.14,SSE,157,0.0,0.0,69,0.00,,,0.00,WUHU21623XXSP,2013-07-04 19:32:00,
2013-07-04 15:37:00,69.3,58.8,30.14,SSE,157,0.0,0.0,69,0.00,,,0.00,WUHU21623XXSP,2013-07-04 19:37:00,
2013-07-04 15:42:00,69.5,58.3,30.14,SSE,157,0.0,0.0,67,0.00,,,0.00,WUHU21623XXSP,2013-07-04 19:42:00,
2013-07-04 15:47:00,69.2,58.0,30.13,SSE,157,0.0,0.0,67,0.00,,,0.00,WUHU21623XXSP,2013-07-04 19:47:00,
2013-07-04 15:52:00,69.5,58.2,30.14,SSE,157,0.0,0.0,67,0.00,,,0.00,WUHU21623XXSP,2013-07-04 19:52:00,
2013-07-04 15:57:00,69.8,58.5,30.14,SSE,157,0.0,0.0,67,0.00,,,0.00,WUHU21623XXSP,2013-07-04 19:57:00,
2013-07-04 16:02:00,70.0,58.7,30.14,SSE,157,0.0,0.0,67,0.00,,,0.00,WUHU21623XXSP,2013-07-04 20:02:00,
2013-07-04 16:07:00,70.3,59.0,30.14,SSE,157,0.0,0.0,67,0.00,,,0.00,WUHU21623XXSP,2013-07-04 20:07:00,
2013-07-04 16:08:00,70.3,59.1,30.14,North,0,0.0,0.0,67,0.00,,,0.00,WUHU21623XXSP,2013-07-04 20:08:00,
2013-07-04 16:12:00,70.3,59.1,30.14,SSE,157,0.0,0.0,67,0.00,,,0.00,WUHU21623XXSP,2013-07-04 20:12:00,
2013-07-04 16:17:00,70.3,59.1,30.14,North,0,0.0,0.0,67,0.00,,,0.00,WUHU21623XXSP,2013-07-04 20:17:00,
2013-07-04 17:07:00,72.7,62.8,30.12,North,0,0.0,0.0,71,0.00,,,0.00,WUHU21623XXSP,2013-07-04 21:07:00,
2013-07-04 17:12:00,72.7,62.8,30.12,South,180,0.0,0.0,71,0.00,,,0.00,WUHU21623XXSP,2013-07-04 21:12:00,
2013-07-04 17:17:00,72.7,62.8,30.12,South,180,0.0,0.0,71,0.00,,,0.00,WUHU21623XXSP,2013-07-04 21:17:00,
2013-07-04 17:22:00,72.7,62.8,30.12,South,180,0.0,0.0,71,0.00,,,0.00,WUHU21623XXSP,2013-07-04 21:22:00,
2013-07-04 17:27:00,72.7,62.8,30.11,South,180,0.0,0.0,71,0.00,,,0.00,WUHU21623XXSP,2013-07-04 21:27:00,
2013-07-04 17:32:00,72.7,63.2,30.12,South,180,0.0,0.0,72,0.00,,,0.00,WUHU21623XXSP,2013-07-04 21:32:00,
2013-07-04 17:37:00,72.7,63.2,30.11,South,180,0.0,0.0,72,0.00,,,0.00,WUHU21623XXSP,2013-07-04 21:37:00,
2013-07-04 17:42:00,72.7,63.2,30.11,South,180,0.0,0.0,72,0.00,,,0.00,WUHU21623XXSP,2013-07-04 21:42:00,
2013-07-04 17:47:00,72.5,63.0,30.12,South,180,0.0,0.0,72,0.00,,,0.00,WUHU21623XXSP,2013-07-04 21:47:00,
2013-07-04 17:52:00,72.5,63.0,30.11,South,180,0.0,0.0,72,0.00,,,0.00,WUHU21623XXSP,2013-07-04 21:52:00,
2013-07-04 17:57:00,72.5,63.0,30.11,South,180,0.0,0.0,72,0.00,,,0.00,WUHU21623XXSP,2013-07-04 21:57:00,
2013-07-04 18:02:00,72.5,63.4,30.11,South,180,0.0,0.0,73,0.00,,,0.00,WUHU21623XXSP,2013-07-04 22:02:00,
2013-07-04 18:07:00,72.5,63.4,30.11,South,180,0.0,0.0,73,0.00,,,0.00,WUHU21623XXSP,2013-07-04 22:07:00,
2013-07-04 18:12:00,72.5,63.4,30.11,South,180,0.0,0.0,73,0.00,,,0.00,WUHU21623XXSP,2013-07-04 22:12:00,
2013-07-04 18:17:00,72.3,63.2,30.11,South,180,0.0,0.0,73,0.00,,,0.00,WUHU21623XXSP,2013-07-04 22:17:00,
2013-07-04 18:22:00,72.3,63.2,30.11,South,180,0.0,0.0,73,0.00,,,0.00,WUHU21623XXSP,2013-07-04 22:22:00,
2013-07-04 18:27:00,72.1,63.0,30.11,South,180,0.0,0.0,73,0.00,,,0.00,WUHU21623XXSP,2013-07-04 22:27:00,
2013-07-04 18:32:00,72.1,63.0,30.10,South,180,0.0,0.0,73,0.00,,,0.00,WUHU21623XXSP,2013-07-04 22:32:00,
2013-07-04 18:37:00,72.1,63.0,30.10,South,180,0.0,0.0,73,0.00,,,0.00,WUHU21623XXSP,2013-07-04 22:37:00,
2013-07-04 18:42:00,72.1,63.0,30.10,South,180,0.0,0.0,73,0.00,,,0.00,WUHU21623XXSP,2013-07-04 22:42:00,
2013-07-04 18:47:00,72.1,63.0,30.11,South,180,0.0,0.0,73,0.00,,,0.00,WUHU21623XXSP,2013-07-04 22:47:00,
2013-07-04 18:52:00,72.1,63.0,30.11,South,180,0.0,0.0,73,0.00,,,0.00,WUHU21623XXSP,2013-07-04 22:52:00,
2013-07-04 18:57:00,72.1,63.0,30.11,South,180,0.0,0.0,73,0.00,,,0.00,WUHU21623XXSP,2013-07-04 22:57:00,
2013-07-04 19:02:00,72.1,63.0,30.11,North,0,0.0,0.0,73,0.00,,,0.00,WUHU21623XXSP,2013-07-04 23:02:00,
2013-07-04 19:07:00,72.1,63.0,30.11,North,0,0.0,0.0,73,0.00,,,0.00,WUHU21623XXSP,2013-07-04 23:07:00,